sensor_id;sensor_type;location;lat;lon;timestamp;pressure;altitude;pressure_sealevel;temperature;humidity
16544;BME280;8384;47.996;7.786;2023-02-01T00:01:13;99742.28;;;4.29;82.04
16544;BME280;8384;47.996;7.786;2023-02-01T00:03:39;99730.28;;;4.10;83.52
16544;BME280;8384;47.996;7.786;2023-02-01T00:06:04;99714.66;;;3.90;83.88
16544;BME280;8384;47.996;7.786;2023-02-01T00:08:29;99721.19;;;3.96;84.40
16544;BME280;8384;47.996;7.786;2023-02-01T00:11:04;99728.59;;;4.09;84.31
16544;BME280;8384;47.996;7.786;2023-02-01T00:13:31;99715.19;;;4.01;83.53
16544;BME280;8384;47.996;7.786;2023-02-01T00:16:09;99729.28;;;4.18;83.81
16544;BME280;8384;47.996;7.786;2023-02-01T00:18:36;99704.97;;;3.96;83.82
16544;BME280;8384;47.996;7.786;2023-02-01T00:21:01;99703.03;;;4.18;83.34
16544;BME280;8384;47.996;7.786;2023-02-01T00:23:27;99705.75;;;4.18;82.68
16544;BME280;8384;47.996;7.786;2023-02-01T00:25:52;99708.41;;;4.12;83.28
16544;BME280;8384;47.996;7.786;2023-02-01T00:28:17;99709.91;;;3.93;84.05
16544;BME280;8384;47.996;7.786;2023-02-01T00:30:43;99711.31;;;3.88;84.32
16544;BME280;8384;47.996;7.786;2023-02-01T00:33:08;99706.16;;;3.94;84.58
16544;BME280;8384;47.996;7.786;2023-02-01T00:35:35;99699.13;;;3.99;83.85
16544;BME280;8384;47.996;7.786;2023-02-01T00:38:00;99685.56;;;3.93;83.95
16544;BME280;8384;47.996;7.786;2023-02-01T00:40:26;99672.75;;;3.80;84.33
16544;BME280;8384;47.996;7.786;2023-02-01T00:42:51;99714.50;;;3.92;84.65
16544;BME280;8384;47.996;7.786;2023-02-01T00:45:17;99704.22;;;3.87;84.28
16544;BME280;8384;47.996;7.786;2023-02-01T00:47:42;99703.47;;;3.94;84.49
16544;BME280;8384;47.996;7.786;2023-02-01T00:50:08;99682.66;;;3.72;84.22
16544;BME280;8384;47.996;7.786;2023-02-01T00:52:33;99685.69;;;3.84;84.08
16544;BME280;8384;47.996;7.786;2023-02-01T00:54:58;99679.41;;;3.77;84.29
16544;BME280;8384;47.996;7.786;2023-02-01T00:57:24;99694.72;;;3.70;84.70
16544;BME280;8384;47.996;7.786;2023-02-01T00:59:49;99664.84;;;3.78;84.23
16544;BME280;8384;47.996;7.786;2023-02-01T01:02:14;99688.53;;;3.98;83.96
16544;BME280;8384;47.996;7.786;2023-02-01T01:04:40;99652.88;;;3.66;84.48
16544;BME280;8384;47.996;7.786;2023-02-01T01:07:06;99669.59;;;3.76;84.44
16544;BME280;8384;47.996;7.786;2023-02-01T01:09:31;99675.50;;;3.86;83.93
16544;BME280;8384;47.996;7.786;2023-02-01T01:11:56;99694.91;;;3.90;83.52
16544;BME280;8384;47.996;7.786;2023-02-01T01:14:22;99669.56;;;3.69;83.30
16544;BME280;8384;47.996;7.786;2023-02-01T01:16:47;99666.19;;;3.45;84.04
16544;BME280;8384;47.996;7.786;2023-02-01T01:19:15;99655.38;;;3.45;83.62
16544;BME280;8384;47.996;7.786;2023-02-01T01:21:40;99671.03;;;3.72;83.38
16544;BME280;8384;47.996;7.786;2023-02-01T01:24:05;99656.47;;;3.51;83.62
16544;BME280;8384;47.996;7.786;2023-02-01T01:26:31;99673.09;;;3.70;83.27
16544;BME280;8384;47.996;7.786;2023-02-01T01:28:57;99651.94;;;3.58;83.77
16544;BME280;8384;47.996;7.786;2023-02-01T01:31:25;99696.00;;;3.96;83.22
16544;BME280;8384;47.996;7.786;2023-02-01T01:33:52;99651.50;;;3.55;83.60
16544;BME280;8384;47.996;7.786;2023-02-01T01:36:18;99701.91;;;3.63;84.41
16544;BME280;8384;47.996;7.786;2023-02-01T01:38:44;99661.19;;;3.64;83.71
16544;BME280;8384;47.996;7.786;2023-02-01T01:41:13;99682.28;;;3.75;83.31
16544;BME280;8384;47.996;7.786;2023-02-01T01:44:05;99683.94;;;3.77;83.51
16544;BME280;8384;47.996;7.786;2023-02-01T01:46:37;99690.94;;;3.64;83.65
16544;BME280;8384;47.996;7.786;2023-02-01T01:49:13;99664.06;;;3.41;84.24
16544;BME280;8384;47.996;7.786;2023-02-01T01:51:43;99681.00;;;3.71;83.39
16544;BME280;8384;47.996;7.786;2023-02-01T01:54:15;99670.16;;;3.71;83.23
16544;BME280;8384;47.996;7.786;2023-02-01T01:56:43;99664.66;;;3.58;82.95
16544;BME280;8384;47.996;7.786;2023-02-01T01:59:12;99671.47;;;3.75;82.75
16544;BME280;8384;47.996;7.786;2023-02-01T02:01:38;99689.94;;;3.72;82.29
16544;BME280;8384;47.996;7.786;2023-02-01T02:04:03;99679.91;;;3.66;83.23
16544;BME280;8384;47.996;7.786;2023-02-01T02:06:43;99691.94;;;3.85;81.70
16544;BME280;8384;47.996;7.786;2023-02-01T02:09:13;99668.66;;;3.62;81.97
16544;BME280;8384;47.996;7.786;2023-02-01T02:11:39;99657.78;;;3.55;82.00
16544;BME280;8384;47.996;7.786;2023-02-01T02:14:06;99665.34;;;3.67;81.59
16544;BME280;8384;47.996;7.786;2023-02-01T02:16:44;99660.97;;;3.44;82.11
16544;BME280;8384;47.996;7.786;2023-02-01T02:22:24;99625.78;;;3.37;82.94
16544;BME280;8384;47.996;7.786;2023-02-01T02:25:14;99652.69;;;3.67;81.97
16544;BME280;8384;47.996;7.786;2023-02-01T02:35:54;99655.50;;;3.59;82.52
16544;BME280;8384;47.996;7.786;2023-02-01T02:41:15;99588.06;;;3.29;82.48
16544;BME280;8384;47.996;7.786;2023-02-01T02:44:09;99623.56;;;3.26;83.31
16544;BME280;8384;47.996;7.786;2023-02-01T02:47:00;99660.91;;;3.37;83.83
16544;BME280;8384;47.996;7.786;2023-02-01T02:50:05;99603.19;;;3.23;83.21
16544;BME280;8384;47.996;7.786;2023-02-01T02:53:30;99631.78;;;3.54;82.29
16544;BME280;8384;47.996;7.786;2023-02-01T02:56:12;99638.13;;;3.47;82.84
16544;BME280;8384;47.996;7.786;2023-02-01T02:58:58;99614.38;;;3.42;82.56
16544;BME280;8384;47.996;7.786;2023-02-01T03:01:43;99645.41;;;3.68;82.60
16544;BME280;8384;47.996;7.786;2023-02-01T03:04:27;99638.00;;;3.55;82.82
16544;BME280;8384;47.996;7.786;2023-02-01T03:06:53;99616.59;;;3.53;82.84
16544;BME280;8384;47.996;7.786;2023-02-01T03:09:26;99630.47;;;3.50;82.99
16544;BME280;8384;47.996;7.786;2023-02-01T03:11:59;99598.56;;;3.39;82.67
16544;BME280;8384;47.996;7.786;2023-02-01T03:14:51;99640.06;;;3.53;82.74
16544;BME280;8384;47.996;7.786;2023-02-01T03:20:03;99613.41;;;3.50;82.75
16544;BME280;8384;47.996;7.786;2023-02-01T03:22:31;99639.28;;;3.59;83.01
16544;BME280;8384;47.996;7.786;2023-02-01T03:25:15;99646.81;;;3.42;83.96
16544;BME280;8384;47.996;7.786;2023-02-01T03:27:50;99649.84;;;3.54;84.26
16544;BME280;8384;47.996;7.786;2023-02-01T03:30:33;99612.66;;;3.34;83.54
16544;BME280;8384;47.996;7.786;2023-02-01T03:33:03;99622.22;;;3.15;84.73
16544;BME280;8384;47.996;7.786;2023-02-01T03:35:37;99646.94;;;3.34;85.49
16544;BME280;8384;47.996;7.786;2023-02-01T03:38:40;99672.97;;;3.20;86.41
16544;BME280;8384;47.996;7.786;2023-02-01T03:41:13;99666.81;;;3.26;86.57
16544;BME280;8384;47.996;7.786;2023-02-01T03:46:50;99657.50;;;3.28;86.33
16544;BME280;8384;47.996;7.786;2023-02-01T03:49:22;99671.69;;;3.15;87.41
16544;BME280;8384;47.996;7.786;2023-02-01T03:51:49;99653.38;;;2.81;87.68
16544;BME280;8384;47.996;7.786;2023-02-01T03:54:16;99654.69;;;2.85;88.62
16544;BME280;8384;47.996;7.786;2023-02-01T03:56:44;99677.03;;;2.94;89.62
16544;BME280;8384;47.996;7.786;2023-02-01T03:59:12;99686.91;;;3.02;90.13
16544;BME280;8384;47.996;7.786;2023-02-01T04:01:38;99673.78;;;2.98;89.68
16544;BME280;8384;47.996;7.786;2023-02-01T04:04:04;99671.25;;;2.82;89.87
16544;BME280;8384;47.996;7.786;2023-02-01T04:06:30;99696.50;;;2.89;90.18
16544;BME280;8384;47.996;7.786;2023-02-01T04:08:55;99700.88;;;2.90;90.33
16544;BME280;8384;47.996;7.786;2023-02-01T04:11:20;99682.72;;;2.84;90.06
16544;BME280;8384;47.996;7.786;2023-02-01T04:13:45;99657.69;;;2.60;91.60
16544;BME280;8384;47.996;7.786;2023-02-01T04:16:11;99661.59;;;2.88;90.50
16544;BME280;8384;47.996;7.786;2023-02-01T04:18:36;99690.63;;;3.00;90.55
16544;BME280;8384;47.996;7.786;2023-02-01T04:21:02;99662.03;;;2.91;90.51
16544;BME280;8384;47.996;7.786;2023-02-01T04:23:28;99705.81;;;2.87;90.74
16544;BME280;8384;47.996;7.786;2023-02-01T04:25:59;99701.91;;;2.74;91.56
16544;BME280;8384;47.996;7.786;2023-02-01T04:28:24;99676.50;;;2.68;91.14
16544;BME280;8384;47.996;7.786;2023-02-01T04:30:49;99686.34;;;2.91;90.71
16544;BME280;8384;47.996;7.786;2023-02-01T04:33:15;99665.31;;;2.87;90.26
16544;BME280;8384;47.996;7.786;2023-02-01T04:35:40;99633.94;;;2.85;90.46
16544;BME280;8384;47.996;7.786;2023-02-01T04:38:06;99669.22;;;2.69;91.78
16544;BME280;8384;47.996;7.786;2023-02-01T04:40:32;99656.56;;;2.84;90.72
16544;BME280;8384;47.996;7.786;2023-02-01T04:42:57;99647.44;;;2.85;91.41
16544;BME280;8384;47.996;7.786;2023-02-01T04:45:23;99637.78;;;2.61;92.35
16544;BME280;8384;47.996;7.786;2023-02-01T04:47:48;99654.97;;;2.75;91.32
16544;BME280;8384;47.996;7.786;2023-02-01T04:50:14;99648.56;;;2.76;91.85
16544;BME280;8384;47.996;7.786;2023-02-01T04:52:39;99618.88;;;2.61;91.63
16544;BME280;8384;47.996;7.786;2023-02-01T04:55:04;99640.88;;;2.95;90.59
16544;BME280;8384;47.996;7.786;2023-02-01T04:57:30;99641.78;;;2.65;91.46
16544;BME280;8384;47.996;7.786;2023-02-01T04:59:55;99634.34;;;2.52;92.37
16544;BME280;8384;47.996;7.786;2023-02-01T05:02:21;99661.50;;;2.66;91.33
16544;BME280;8384;47.996;7.786;2023-02-01T05:04:46;99672.22;;;2.74;92.03
16544;BME280;8384;47.996;7.786;2023-02-01T05:07:11;99667.09;;;2.79;91.52
16544;BME280;8384;47.996;7.786;2023-02-01T05:09:36;99659.72;;;2.88;91.30
16544;BME280;8384;47.996;7.786;2023-02-01T05:12:02;99633.13;;;2.55;92.01
16544;BME280;8384;47.996;7.786;2023-02-01T05:14:46;99665.69;;;2.68;92.04
16544;BME280;8384;47.996;7.786;2023-02-01T05:17:12;99679.66;;;2.72;91.63
16544;BME280;8384;47.996;7.786;2023-02-01T05:19:38;99679.00;;;2.70;92.20
16544;BME280;8384;47.996;7.786;2023-02-01T05:22:03;99680.66;;;2.71;91.96
16544;BME280;8384;47.996;7.786;2023-02-01T05:24:29;99666.63;;;2.76;91.88
16544;BME280;8384;47.996;7.786;2023-02-01T05:26:54;99669.50;;;2.59;92.59
16544;BME280;8384;47.996;7.786;2023-02-01T05:29:19;99682.53;;;2.85;91.89
16544;BME280;8384;47.996;7.786;2023-02-01T05:31:46;99691.53;;;2.93;91.59
16544;BME280;8384;47.996;7.786;2023-02-01T05:34:11;99698.84;;;2.77;92.44
16544;BME280;8384;47.996;7.786;2023-02-01T05:36:37;99685.91;;;2.58;92.46
16544;BME280;8384;47.996;7.786;2023-02-01T05:39:03;99707.22;;;2.67;92.77
16544;BME280;8384;47.996;7.786;2023-02-01T05:41:28;99689.13;;;2.53;93.21
16544;BME280;8384;47.996;7.786;2023-02-01T05:43:54;99710.00;;;2.74;93.61
16544;BME280;8384;47.996;7.786;2023-02-01T05:46:19;99688.97;;;2.69;92.96
16544;BME280;8384;47.996;7.786;2023-02-01T05:48:44;99716.13;;;2.83;91.58
16544;BME280;8384;47.996;7.786;2023-02-01T05:51:10;99711.09;;;2.80;92.83
16544;BME280;8384;47.996;7.786;2023-02-01T05:53:36;99706.47;;;2.74;92.82
16544;BME280;8384;47.996;7.786;2023-02-01T05:56:02;99706.47;;;2.74;92.95
16544;BME280;8384;47.996;7.786;2023-02-01T05:58:27;99695.56;;;2.52;93.64
16544;BME280;8384;47.996;7.786;2023-02-01T06:00:53;99691.84;;;2.68;92.86
16544;BME280;8384;47.996;7.786;2023-02-01T06:03:18;99720.63;;;2.76;92.80
16544;BME280;8384;47.996;7.786;2023-02-01T06:05:44;99706.56;;;2.80;92.93
16544;BME280;8384;47.996;7.786;2023-02-01T06:08:10;99703.03;;;2.65;93.40
16544;BME280;8384;47.996;7.786;2023-02-01T06:10:35;99688.88;;;2.63;93.14
16544;BME280;8384;47.996;7.786;2023-02-01T06:13:00;99699.28;;;2.66;93.78
16544;BME280;8384;47.996;7.786;2023-02-01T06:15:25;99681.44;;;2.65;92.24
16544;BME280;8384;47.996;7.786;2023-02-01T06:17:51;99699.28;;;2.81;92.29
16544;BME280;8384;47.996;7.786;2023-02-01T06:20:16;99708.59;;;2.93;93.04
16544;BME280;8384;47.996;7.786;2023-02-01T06:22:41;99707.22;;;2.82;93.34
16544;BME280;8384;47.996;7.786;2023-02-01T06:25:08;99695.19;;;2.70;93.34
16544;BME280;8384;47.996;7.786;2023-02-01T06:27:34;99708.53;;;2.72;94.26
16544;BME280;8384;47.996;7.786;2023-02-01T06:29:59;99707.38;;;2.66;94.32
16544;BME280;8384;47.996;7.786;2023-02-01T06:32:25;99718.00;;;2.67;93.93
16544;BME280;8384;47.996;7.786;2023-02-01T06:34:50;99710.47;;;2.78;94.05
16544;BME280;8384;47.996;7.786;2023-02-01T06:37:18;99708.97;;;2.60;93.77
16544;BME280;8384;47.996;7.786;2023-02-01T06:39:43;99700.78;;;2.53;94.12
16544;BME280;8384;47.996;7.786;2023-02-01T06:42:08;99701.44;;;2.55;94.22
16544;BME280;8384;47.996;7.786;2023-02-01T06:44:33;99730.13;;;2.72;93.70
16544;BME280;8384;47.996;7.786;2023-02-01T06:46:59;99713.44;;;2.68;94.57
16544;BME280;8384;47.996;7.786;2023-02-01T06:49:24;99694.06;;;2.49;94.26
16544;BME280;8384;47.996;7.786;2023-02-01T06:51:49;99696.03;;;2.70;93.48
16544;BME280;8384;47.996;7.786;2023-02-01T06:54:14;99696.69;;;2.58;93.17
16544;BME280;8384;47.996;7.786;2023-02-01T06:56:40;99670.34;;;2.45;93.97
16544;BME280;8384;47.996;7.786;2023-02-01T06:59:06;99736.84;;;2.76;94.05
16544;BME280;8384;47.996;7.786;2023-02-01T07:01:32;99724.16;;;2.61;94.18
16544;BME280;8384;47.996;7.786;2023-02-01T07:03:58;99724.16;;;2.61;94.04
16544;BME280;8384;47.996;7.786;2023-02-01T07:06:23;99745.94;;;2.75;93.58
16544;BME280;8384;47.996;7.786;2023-02-01T07:08:49;99738.31;;;2.78;94.46
16544;BME280;8384;47.996;7.786;2023-02-01T07:11:16;99751.78;;;2.63;94.52
16544;BME280;8384;47.996;7.786;2023-02-01T07:13:42;99743.13;;;2.83;93.64
16544;BME280;8384;47.996;7.786;2023-02-01T07:16:13;99742.59;;;2.88;93.61
16544;BME280;8384;47.996;7.786;2023-02-01T07:18:39;99737.47;;;2.78;93.99
16544;BME280;8384;47.996;7.786;2023-02-01T07:21:05;99759.63;;;2.88;94.15
16544;BME280;8384;47.996;7.786;2023-02-01T07:23:30;99742.69;;;2.94;94.44
16544;BME280;8384;47.996;7.786;2023-02-01T07:26:00;99671.91;;;2.54;93.38
16544;BME280;8384;47.996;7.786;2023-02-01T07:28:28;99729.28;;;2.86;92.97
16544;BME280;8384;47.996;7.786;2023-02-01T07:30:54;99735.25;;;2.96;93.07
16544;BME280;8384;47.996;7.786;2023-02-01T07:33:21;99730.78;;;2.74;94.11
16544;BME280;8384;47.996;7.786;2023-02-01T07:35:47;99781.97;;;2.82;94.54
16544;BME280;8384;47.996;7.786;2023-02-01T07:38:13;99735.41;;;2.80;94.84
16544;BME280;8384;47.996;7.786;2023-02-01T07:40:38;99758.44;;;2.91;94.47
16544;BME280;8384;47.996;7.786;2023-02-01T07:43:04;99770.34;;;2.96;94.45
16544;BME280;8384;47.996;7.786;2023-02-01T07:45:31;99768.19;;;2.92;95.06
16544;BME280;8384;47.996;7.786;2023-02-01T07:47:56;99769.31;;;2.97;95.31
16544;BME280;8384;47.996;7.786;2023-02-01T07:50:21;99758.81;;;3.03;94.84
16544;BME280;8384;47.996;7.786;2023-02-01T07:52:47;99742.69;;;2.94;94.93
16544;BME280;8384;47.996;7.786;2023-02-01T07:55:12;99747.22;;;3.09;94.75
16544;BME280;8384;47.996;7.786;2023-02-01T07:57:37;99740.44;;;2.98;95.50
16544;BME280;8384;47.996;7.786;2023-02-01T08:00:03;99734.47;;;3.18;94.87
16544;BME280;8384;47.996;7.786;2023-02-01T08:02:47;99701.16;;;2.95;94.91
16544;BME280;8384;47.996;7.786;2023-02-01T08:05:12;99744.91;;;3.06;95.79
16544;BME280;8384;47.996;7.786;2023-02-01T08:07:38;99712.63;;;2.82;95.62
16544;BME280;8384;47.996;7.786;2023-02-01T08:10:03;99748.16;;;3.16;96.08
16544;BME280;8384;47.996;7.786;2023-02-01T08:12:30;99718.00;;;3.12;94.87
16544;BME280;8384;47.996;7.786;2023-02-01T08:14:56;99768.56;;;3.19;94.87
16544;BME280;8384;47.996;7.786;2023-02-01T08:17:21;99681.53;;;2.72;95.66
16544;BME280;8384;47.996;7.786;2023-02-01T08:19:46;99760.66;;;3.17;95.40
16544;BME280;8384;47.996;7.786;2023-02-01T08:22:12;99746.94;;;3.19;95.08
16544;BME280;8384;47.996;7.786;2023-02-01T08:24:37;99729.44;;;3.14;94.95
16544;BME280;8384;47.996;7.786;2023-02-01T08:27:05;99740.06;;;3.16;94.53
16544;BME280;8384;47.996;7.786;2023-02-01T08:29:30;99764.44;;;3.38;94.03
16544;BME280;8384;47.996;7.786;2023-02-01T08:31:56;99742.28;;;3.27;94.09
16544;BME280;8384;47.996;7.786;2023-02-01T08:34:21;99772.41;;;3.09;93.02
16544;BME280;8384;47.996;7.786;2023-02-01T08:36:46;99757.84;;;3.40;93.78
16544;BME280;8384;47.996;7.786;2023-02-01T08:39:12;99775.03;;;3.54;93.36
16544;BME280;8384;47.996;7.786;2023-02-01T08:41:37;99759.69;;;3.25;93.72
16544;BME280;8384;47.996;7.786;2023-02-01T08:44:03;99757.28;;;3.30;93.42
16544;BME280;8384;47.996;7.786;2023-02-01T08:46:29;99801.16;;;3.47;93.41
16544;BME280;8384;47.996;7.786;2023-02-01T08:48:54;99789.94;;;3.65;93.35
16544;BME280;8384;47.996;7.786;2023-02-01T08:51:21;99803.34;;;3.58;93.00
16544;BME280;8384;47.996;7.786;2023-02-01T08:53:47;99804.56;;;3.56;93.60
16544;BME280;8384;47.996;7.786;2023-02-01T08:56:13;99775.63;;;3.20;95.00
16544;BME280;8384;47.996;7.786;2023-02-01T08:58:39;99804.88;;;3.46;94.13
16544;BME280;8384;47.996;7.786;2023-02-01T09:01:07;99723.28;;;3.06;94.53
16544;BME280;8384;47.996;7.786;2023-02-01T09:03:32;99761.88;;;3.14;94.87
16544;BME280;8384;47.996;7.786;2023-02-01T09:06:06;99798.72;;;3.52;94.58
16544;BME280;8384;47.996;7.786;2023-02-01T09:08:32;99823.59;;;3.48;94.29
16544;BME280;8384;47.996;7.786;2023-02-01T09:10:59;99772.09;;;3.19;94.95
16544;BME280;8384;47.996;7.786;2023-02-01T09:13:25;99804.31;;;3.36;94.88
16544;BME280;8384;47.996;7.786;2023-02-01T09:15:51;99786.88;;;3.53;95.07
16544;BME280;8384;47.996;7.786;2023-02-01T09:18:16;99792.91;;;3.70;95.53
16544;BME280;8384;47.996;7.786;2023-02-01T09:20:42;99790.59;;;3.89;93.75
16544;BME280;8384;47.996;7.786;2023-02-01T09:23:07;99752.66;;;3.45;95.07
16544;BME280;8384;47.996;7.786;2023-02-01T09:25:32;99769.78;;;3.68;95.51
16544;BME280;8384;47.996;7.786;2023-02-01T09:27:57;99766.03;;;3.69;95.17
16544;BME280;8384;47.996;7.786;2023-02-01T09:30:23;99778.47;;;3.63;95.92
16544;BME280;8384;47.996;7.786;2023-02-01T09:32:48;99789.19;;;3.93;95.48
16544;BME280;8384;47.996;7.786;2023-02-01T09:35:13;99786.19;;;4.03;94.46
16544;BME280;8384;47.996;7.786;2023-02-01T09:37:39;99796.84;;;4.11;93.85
16544;BME280;8384;47.996;7.786;2023-02-01T09:40:04;99783.84;;;4.22;94.20
16544;BME280;8384;47.996;7.786;2023-02-01T09:42:56;99771.34;;;3.99;94.55
16544;BME280;8384;47.996;7.786;2023-02-01T09:45:43;99760.16;;;3.80;95.96
16544;BME280;8384;47.996;7.786;2023-02-01T09:48:16;99733.28;;;3.79;95.68
16544;BME280;8384;47.996;7.786;2023-02-01T09:50:47;99732.97;;;4.39;93.16
16544;BME280;8384;47.996;7.786;2023-02-01T09:53:27;99731.91;;;4.61;90.92
16544;BME280;8384;47.996;7.786;2023-02-01T09:56:58;99785.06;;;4.69;91.16
16544;BME280;8384;47.996;7.786;2023-02-01T09:59:19;99784.25;;;5.04;89.81
16544;BME280;8384;47.996;7.786;2023-02-01T10:01:47;99757.88;;;4.84;88.74
16544;BME280;8384;47.996;7.786;2023-02-01T10:04:14;99805.91;;;4.69;89.55
16544;BME280;8384;47.996;7.786;2023-02-01T10:06:57;99790.00;;;4.59;90.66
16544;BME280;8384;47.996;7.786;2023-02-01T10:15:32;99813.00;;;4.70;89.39
16544;BME280;8384;47.996;7.786;2023-02-01T10:18:23;99804.59;;;4.93;89.29
16544;BME280;8384;47.996;7.786;2023-02-01T10:21:19;99818.88;;;5.02;89.17
16544;BME280;8384;47.996;7.786;2023-02-01T10:24:25;99817.22;;;4.79;89.89
16544;BME280;8384;47.996;7.786;2023-02-01T10:27:02;99817.28;;;4.86;89.34
16544;BME280;8384;47.996;7.786;2023-02-01T10:29:39;99817.16;;;4.72;90.22
16544;BME280;8384;47.996;7.786;2023-02-01T10:32:22;99824.59;;;4.92;90.05
16544;BME280;8384;47.996;7.786;2023-02-01T10:34:58;99827.38;;;4.70;90.54
16544;BME280;8384;47.996;7.786;2023-02-01T10:37:34;99821.75;;;5.00;89.75
16544;BME280;8384;47.996;7.786;2023-02-01T10:40:16;99808.44;;;4.77;90.28
16544;BME280;8384;47.996;7.786;2023-02-01T10:42:44;99810.47;;;4.97;89.42
16544;BME280;8384;47.996;7.786;2023-02-01T10:45:14;99806.09;;;4.95;89.93
16544;BME280;8384;47.996;7.786;2023-02-01T10:47:41;99804.28;;;4.74;89.67
16544;BME280;8384;47.996;7.786;2023-02-01T10:53:11;99823.19;;;4.96;89.57
16544;BME280;8384;47.996;7.786;2023-02-01T10:55:49;99831.19;;;5.11;87.78
16544;BME280;8384;47.996;7.786;2023-02-01T10:58:35;99823.41;;;5.30;86.83
16544;BME280;8384;47.996;7.786;2023-02-01T11:01:10;99825.25;;;4.94;87.52
16544;BME280;8384;47.996;7.786;2023-02-01T11:03:41;99790.47;;;4.98;87.61
16544;BME280;8384;47.996;7.786;2023-02-01T11:08:47;99797.03;;;5.17;86.08
16544;BME280;8384;47.996;7.786;2023-02-01T11:11:13;99802.81;;;5.42;85.03
16544;BME280;8384;47.996;7.786;2023-02-01T11:13:40;99806.00;;;5.59;83.19
16544;BME280;8384;47.996;7.786;2023-02-01T11:16:06;99801.25;;;5.68;83.37
16544;BME280;8384;47.996;7.786;2023-02-01T11:18:35;99791.25;;;5.68;83.54
16544;BME280;8384;47.996;7.786;2023-02-01T11:21:02;99770.66;;;5.39;83.83
16544;BME280;8384;47.996;7.786;2023-02-01T11:23:30;99767.97;;;5.46;82.65
16544;BME280;8384;47.996;7.786;2023-02-01T11:25:58;99770.09;;;5.50;82.88
16544;BME280;8384;47.996;7.786;2023-02-01T11:28:27;99795.84;;;5.75;81.65
16544;BME280;8384;47.996;7.786;2023-02-01T11:30:56;99777.69;;;5.75;81.05
16544;BME280;8384;47.996;7.786;2023-02-01T11:33:26;99787.03;;;5.66;80.68
16544;BME280;8384;47.996;7.786;2023-02-01T11:35:55;99796.47;;;5.77;79.10
16544;BME280;8384;47.996;7.786;2023-02-01T11:38:25;99777.47;;;5.70;80.24
16544;BME280;8384;47.996;7.786;2023-02-01T11:40:51;99761.75;;;5.59;80.05
16544;BME280;8384;47.996;7.786;2023-02-01T11:43:25;99742.44;;;5.75;78.59
16544;BME280;8384;47.996;7.786;2023-02-01T11:46:17;99774.44;;;6.07;76.71
16544;BME280;8384;47.996;7.786;2023-02-01T11:48:47;99738.97;;;6.08;74.51
16544;BME280;8384;47.996;7.786;2023-02-01T11:54:11;99749.00;;;6.21;72.03
16544;BME280;8384;47.996;7.786;2023-02-01T11:57:09;99747.53;;;6.32;72.93
16544;BME280;8384;47.996;7.786;2023-02-01T11:59:57;99754.00;;;6.38;72.18
16544;BME280;8384;47.996;7.786;2023-02-01T12:05:27;99767.78;;;6.16;71.65
16544;BME280;8384;47.996;7.786;2023-02-01T12:08:36;99751.91;;;6.06;72.29
16544;BME280;8384;47.996;7.786;2023-02-01T12:17:30;99736.19;;;5.88;72.52
16544;BME280;8384;47.996;7.786;2023-02-01T12:20:11;99737.28;;;6.00;73.63
16544;BME280;8384;47.996;7.786;2023-02-01T12:23:04;99716.97;;;5.76;74.24
16544;BME280;8384;47.996;7.786;2023-02-01T12:31:46;99683.00;;;5.18;75.85
16544;BME280;8384;47.996;7.786;2023-02-01T12:34:36;99731.75;;;5.74;76.01
16544;BME280;8384;47.996;7.786;2023-02-01T12:40:13;99754.50;;;5.66;76.81
16544;BME280;8384;47.996;7.786;2023-02-01T12:42:48;99716.78;;;5.16;78.06
16544;BME280;8384;47.996;7.786;2023-02-01T12:45:36;99728.78;;;5.42;77.64
16544;BME280;8384;47.996;7.786;2023-02-01T12:48:27;99723.16;;;5.50;77.69
16544;BME280;8384;47.996;7.786;2023-02-01T12:50:56;99709.34;;;5.45;77.53
16544;BME280;8384;47.996;7.786;2023-02-01T12:53:30;99719.16;;;5.46;77.20
16544;BME280;8384;47.996;7.786;2023-02-01T12:56:02;99715.00;;;5.50;77.29
16544;BME280;8384;47.996;7.786;2023-02-01T12:58:50;99697.69;;;5.44;76.83
16544;BME280;8384;47.996;7.786;2023-02-01T13:01:39;99681.19;;;5.32;76.40
16544;BME280;8384;47.996;7.786;2023-02-01T13:04:17;99705.03;;;5.57;76.15
16544;BME280;8384;47.996;7.786;2023-02-01T13:07:24;99693.09;;;5.38;75.78
16544;BME280;8384;47.996;7.786;2023-02-01T13:09:55;99680.78;;;5.42;76.58
16544;BME280;8384;47.996;7.786;2023-02-01T13:12:28;99687.91;;;5.50;76.80
16544;BME280;8384;47.996;7.786;2023-02-01T13:14:57;99694.19;;;5.64;76.22
16544;BME280;8384;47.996;7.786;2023-02-01T13:17:28;99692.09;;;5.66;76.06
16544;BME280;8384;47.996;7.786;2023-02-01T13:22:50;99704.03;;;5.78;75.15
16544;BME280;8384;47.996;7.786;2023-02-01T13:25:29;99704.41;;;5.62;74.01
16544;BME280;8384;47.996;7.786;2023-02-01T13:28:04;99707.56;;;5.72;73.55
16544;BME280;8384;47.996;7.786;2023-02-01T13:30:42;99672.50;;;5.64;73.81
16544;BME280;8384;47.996;7.786;2023-02-01T13:33:26;99628.38;;;5.15;73.67
16544;BME280;8384;47.996;7.786;2023-02-01T13:39:45;99700.88;;;5.61;73.41
16544;BME280;8384;47.996;7.786;2023-02-01T13:41:58;99701.50;;;5.63;73.73
16544;BME280;8384;47.996;7.786;2023-02-01T13:44:32;99710.69;;;5.62;71.80
16544;BME280;8384;47.996;7.786;2023-02-01T13:47:02;99697.31;;;5.61;70.75
16544;BME280;8384;47.996;7.786;2023-02-01T13:49:31;99693.56;;;5.62;70.02
16544;BME280;8384;47.996;7.786;2023-02-01T13:51:58;99706.94;;;5.63;70.27
16544;BME280;8384;47.996;7.786;2023-02-01T13:54:31;99701.09;;;5.80;69.01
16544;BME280;8384;47.996;7.786;2023-02-01T13:56:59;99703.41;;;5.76;69.55
16544;BME280;8384;47.996;7.786;2023-02-01T14:05:01;99715.88;;;5.50;71.17
16544;BME280;8384;47.996;7.786;2023-02-01T14:07:26;99708.31;;;5.46;71.92
16544;BME280;8384;47.996;7.786;2023-02-01T14:09:51;99698.72;;;5.36;72.25
16544;BME280;8384;47.996;7.786;2023-02-01T14:12:47;99719.78;;;5.34;72.59
16544;BME280;8384;47.996;7.786;2023-02-01T14:15:19;99719.59;;;5.43;73.14
16544;BME280;8384;47.996;7.786;2023-02-01T14:17:47;99722.34;;;5.63;72.40
16544;BME280;8384;47.996;7.786;2023-02-01T14:20:44;99727.06;;;5.34;74.00
16544;BME280;8384;47.996;7.786;2023-02-01T14:23:15;99694.75;;;5.32;72.75
16544;BME280;8384;47.996;7.786;2023-02-01T14:25:41;99718.53;;;5.37;73.58
16544;BME280;8384;47.996;7.786;2023-02-01T14:28:25;99727.31;;;5.46;73.71
16544;BME280;8384;47.996;7.786;2023-02-01T14:30:51;99692.81;;;5.19;73.66
16544;BME280;8384;47.996;7.786;2023-02-01T14:33:23;99721.22;;;5.30;73.92
16544;BME280;8384;47.996;7.786;2023-02-01T14:36:11;99678.94;;;4.94;74.26
16544;BME280;8384;47.996;7.786;2023-02-01T14:38:38;99723.28;;;5.28;73.67
16544;BME280;8384;47.996;7.786;2023-02-01T14:41:27;99723.53;;;5.33;73.61
16544;BME280;8384;47.996;7.786;2023-02-01T14:49:32;99720.31;;;5.16;72.52
16544;BME280;8384;47.996;7.786;2023-02-01T14:52:02;99716.22;;;5.34;71.82